createdAt,value
2018-07-26T00:01:33.806Z,95362.32
2018-07-26T00:04:00.572Z,95369.05
2018-07-26T00:06:27.324Z,95369.20
2018-07-26T00:08:54.099Z,95367.29
2018-07-26T00:11:20.868Z,95367.47
2018-07-26T00:13:47.623Z,95377.14
2018-07-26T00:16:14.368Z,95369.29
2018-07-26T00:18:41.138Z,95372.27
2018-07-26T00:21:07.902Z,95375.88
2018-07-26T00:23:34.635Z,95376.73
2018-07-26T00:26:01.955Z,95376.83
2018-07-26T00:28:28.741Z,95372.61
2018-07-26T00:30:55.496Z,95373.91
2018-07-26T00:33:22.224Z,95377.63
2018-07-26T00:35:48.975Z,95372.34
2018-07-26T00:38:15.718Z,95371.14
2018-07-26T00:40:43.146Z,95371.60
2018-07-26T00:43:09.871Z,95370.16
2018-07-26T00:45:36.655Z,95371.69
2018-07-26T00:48:03.525Z,95370.95
2018-07-26T00:50:30.304Z,95372.81
2018-07-26T00:52:57.024Z,95371.69
2018-07-26T00:55:23.791Z,95369.63
2018-07-26T00:57:50.523Z,95372.80
2018-07-26T01:00:17.299Z,95379.29
2018-07-26T01:02:44.056Z,95373.67
2018-07-26T01:05:10.796Z,95368.96
2018-07-26T01:07:37.559Z,95371.53
2018-07-26T01:10:05.539Z,95370.12
2018-07-26T01:12:32.313Z,95368.30
2018-07-26T01:14:59.060Z,95363.47
2018-07-26T01:17:25.812Z,95371.86
2018-07-26T01:19:52.576Z,95362.22
2018-07-26T01:22:19.346Z,95367.94
2018-07-26T01:24:46.096Z,95366.09
2018-07-26T01:27:12.891Z,95363.97
2018-07-26T01:29:39.660Z,95358.66
2018-07-26T01:32:06.435Z,95353.79
2018-07-26T01:34:33.170Z,95358.70
2018-07-26T01:36:59.936Z,95353.14
2018-07-26T01:39:26.679Z,95344.46
2018-07-26T01:41:53.483Z,95349.17
2018-07-26T01:44:21.892Z,95350.38
2018-07-26T01:46:48.651Z,95353.84
2018-07-26T01:49:15.473Z,95350.03
2018-07-26T01:51:42.211Z,95349.58
2018-07-26T01:54:08.990Z,95345.56
2018-07-26T01:56:35.718Z,95343.09
2018-07-26T01:59:03.095Z,95338.25
2018-07-26T02:01:29.892Z,95339.43
2018-07-26T02:03:56.671Z,95334.71
2018-07-26T02:06:23.415Z,95332.77
2018-07-26T02:08:50.167Z,95332.12
2018-07-26T02:11:16.911Z,95331.59
2018-07-26T02:13:43.689Z,95327.68
2018-07-26T02:16:10.424Z,95329.58
2018-07-26T02:18:37.204Z,95326.56
2018-07-26T02:21:03.962Z,95334.12
2018-07-26T02:23:30.829Z,95341.64
2018-07-26T02:25:57.564Z,95339.88
2018-07-26T02:28:24.777Z,95338.52
2018-07-26T02:30:51.568Z,95347.35
2018-07-26T02:33:18.229Z,95341.28
2018-07-26T02:35:45.036Z,95344.63
2018-07-26T02:38:11.792Z,95342.44
2018-07-26T02:40:38.672Z,95350.42
2018-07-26T02:43:05.912Z,95351.94
2018-07-26T02:45:32.773Z,95350.00
2018-07-26T02:47:59.565Z,95348.56
2018-07-26T02:50:26.342Z,95348.76
2018-07-26T02:52:53.127Z,95341.93
2018-07-26T02:55:19.895Z,95338.89
2018-07-26T02:57:46.646Z,95342.86
2018-07-26T03:00:13.420Z,95349.59
2018-07-26T03:02:40.149Z,95346.19
2018-07-26T03:05:07.727Z,95354.23
2018-07-26T03:07:34.471Z,95355.12
2018-07-26T03:10:01.976Z,95360.14
2018-07-26T03:12:28.796Z,95354.92
2018-07-26T03:14:55.835Z,95356.36
2018-07-26T03:17:22.573Z,95357.87
2018-07-26T03:19:49.339Z,95358.49
2018-07-26T03:22:16.102Z,95359.31
2018-07-26T03:24:42.932Z,95359.46
2018-07-26T03:27:09.738Z,95358.53
2018-07-26T03:29:36.743Z,95358.13
2018-07-26T03:32:03.567Z,95356.61
2018-07-26T03:34:30.313Z,95359.09
2018-07-26T03:36:57.076Z,95358.08
2018-07-26T03:39:23.811Z,95365.59
2018-07-26T03:41:50.607Z,95361.02
2018-07-26T03:44:17.354Z,95367.75
2018-07-26T03:46:44.384Z,95368.91
2018-07-26T03:49:11.243Z,95368.91
2018-07-26T03:51:38.011Z,95370.22
2018-07-26T03:54:05.004Z,95366.75
2018-07-26T03:56:31.819Z,95365.55
2018-07-26T03:58:58.559Z,95363.28
2018-07-26T04:01:25.288Z,95360.77
2018-07-26T04:03:52.076Z,95363.34
2018-07-26T04:06:18.859Z,95360.83
2018-07-26T04:08:45.622Z,95362.83
2018-07-26T04:11:12.371Z,95369.00
2018-07-26T04:13:39.157Z,95371.37
2018-07-26T04:16:05.904Z,95367.80
2018-07-26T04:18:32.763Z,95375.02
2018-07-26T04:20:59.539Z,95370.68
2018-07-26T04:23:26.309Z,95367.60
2018-07-26T04:25:53.107Z,95367.78
2018-07-26T04:28:19.908Z,95366.72
2018-07-26T04:30:46.647Z,95364.91
2018-07-26T04:33:13.412Z,95363.25
2018-07-26T04:35:40.153Z,95363.42
2018-07-26T04:38:06.931Z,95367.14
2018-07-26T04:40:34.109Z,95367.70
2018-07-26T04:43:00.884Z,95370.23
2018-07-26T04:45:27.635Z,95375.59
2018-07-26T04:47:54.353Z,95378.12
2018-07-26T04:50:21.151Z,95379.69
2018-07-26T04:52:47.960Z,95380.97
2018-07-26T04:55:14.643Z,95391.72
2018-07-26T04:57:41.387Z,95384.60
2018-07-26T05:00:08.228Z,95389.59
2018-07-26T05:02:35.198Z,95393.27
2018-07-26T05:05:02.711Z,95391.06
2018-07-26T05:07:29.455Z,95395.95
2018-07-26T05:09:56.244Z,95394.97
2018-07-26T05:12:23.014Z,95393.66
2018-07-26T05:14:49.815Z,95389.22
2018-07-26T05:17:16.527Z,95395.95
2018-07-26T05:19:43.633Z,95394.55
2018-07-26T05:22:10.435Z,95398.31
2018-07-26T05:24:37.979Z,95389.10
2018-07-26T05:27:04.844Z,95393.31
2018-07-26T05:29:31.654Z,95391.49
2018-07-26T05:31:58.380Z,95398.73
2018-07-26T05:34:25.138Z,95397.86
2018-07-26T05:36:51.903Z,95405.75
2018-07-26T05:39:18.631Z,95406.82
2018-07-26T05:41:45.401Z,95409.59
2018-07-26T05:44:12.123Z,95406.89
2018-07-26T05:46:38.987Z,95406.36
2018-07-26T05:49:05.773Z,95408.75
2018-07-26T05:51:32.591Z,95408.22
2018-07-26T05:53:59.363Z,95404.50
2018-07-26T05:56:26.131Z,95408.11
2018-07-26T05:58:52.880Z,95412.84
2018-07-26T06:01:19.701Z,95412.37
2018-07-26T06:03:46.447Z,95410.47
2018-07-26T06:06:13.219Z,95410.13
2018-07-26T06:08:39.960Z,95413.97
2018-07-26T06:11:06.759Z,95409.50
2018-07-26T06:13:33.546Z,95412.22
2018-07-26T06:16:00.294Z,95412.64
2018-07-26T06:18:27.336Z,95412.66
2018-07-26T06:20:54.107Z,95412.98
2018-07-26T06:23:20.867Z,95418.40
2018-07-26T06:25:47.604Z,95424.92
2018-07-26T06:28:14.398Z,95423.02
2018-07-26T06:30:41.126Z,95424.12
2018-07-26T06:33:07.893Z,95420.34
2018-07-26T06:35:34.624Z,95421.89
2018-07-26T06:38:01.938Z,95418.41
2018-07-26T06:40:28.698Z,95421.66
2018-07-26T06:42:55.469Z,95415.33
2018-07-26T06:45:22.180Z,95418.26
2018-07-26T06:47:49.002Z,95412.14
2018-07-26T06:50:15.727Z,95414.24
2018-07-26T06:52:42.511Z,95421.82
2018-07-26T06:55:09.704Z,95419.25
2018-07-26T06:57:36.547Z,95420.69
2018-07-26T07:00:05.312Z,95424.55
2018-07-26T07:02:33.192Z,95427.02
2018-07-26T07:04:59.955Z,95422.30
2018-07-26T07:07:26.671Z,95427.77
2018-07-26T07:09:53.432Z,95422.20
2018-07-26T07:12:20.454Z,95423.16
2018-07-26T07:14:47.192Z,95423.30
2018-07-26T07:17:13.923Z,95427.47
2018-07-26T07:19:40.759Z,95428.36
2018-07-26T07:22:07.591Z,95435.73
2018-07-26T07:24:34.355Z,95435.56
2018-07-26T07:27:02.277Z,95437.77
2018-07-26T07:29:29.109Z,95434.55
2018-07-26T07:31:55.923Z,95425.28
2018-07-26T07:34:22.688Z,95431.20
2018-07-26T07:36:49.508Z,95429.92
2018-07-26T07:39:16.254Z,95437.12
2018-07-26T07:41:43.067Z,95431.70
2018-07-26T07:44:10.226Z,95424.69
2018-07-26T07:46:37.477Z,95422.94
2018-07-26T07:49:04.185Z,95427.84
2018-07-26T07:51:31.307Z,95426.80
2018-07-26T07:53:58.063Z,95428.78
2018-07-26T07:56:24.845Z,95425.66
2018-07-26T07:58:51.623Z,95428.52
2018-07-26T08:01:18.388Z,95423.06
2018-07-26T08:03:45.148Z,95426.30
2018-07-26T08:06:11.976Z,95430.17
2018-07-26T08:08:38.711Z,95431.38
2018-07-26T08:11:05.488Z,95429.03
2018-07-26T08:13:32.259Z,95425.41
2018-07-26T08:15:59.018Z,95430.36
2018-07-26T08:18:25.735Z,95428.48
2018-07-26T08:20:52.503Z,95434.36
2018-07-26T08:23:19.255Z,95435.80
2018-07-26T08:25:46.045Z,95433.98
2018-07-26T08:28:12.788Z,95439.75
2018-07-26T08:30:39.562Z,95435.94
2018-07-26T08:33:06.329Z,95439.52
2018-07-26T08:35:33.068Z,95435.31
2018-07-26T08:37:59.835Z,95439.98
2018-07-26T08:40:26.595Z,95442.70
2018-07-26T08:42:53.383Z,95441.83
2018-07-26T08:45:20.131Z,95439.36
2018-07-26T08:47:46.894Z,95443.75
2018-07-26T08:50:13.683Z,95437.75
2018-07-26T08:52:40.447Z,95441.00
2018-07-26T08:55:07.227Z,95438.50
2018-07-26T08:57:34.080Z,95441.28
2018-07-26T09:00:00.897Z,95434.93
2018-07-26T09:02:27.692Z,95438.93
2018-07-26T09:04:54.448Z,95441.20
2018-07-26T09:07:21.235Z,95440.03
2018-07-26T09:09:48.036Z,95434.34
2018-07-26T09:12:14.732Z,95434.11
2018-07-26T09:14:41.523Z,95431.20
2018-07-26T09:17:08.304Z,95437.52
2018-07-26T09:19:35.071Z,95437.44
2018-07-26T09:22:02.484Z,95433.50
2018-07-26T09:24:29.353Z,95434.26
2018-07-26T09:26:56.039Z,95435.78
2018-07-26T09:29:22.846Z,95428.91
2018-07-26T09:31:49.588Z,95428.45
2018-07-26T09:34:16.405Z,95432.17
2018-07-26T09:36:43.171Z,95422.47
2018-07-26T09:39:12.237Z,95422.25
2018-07-26T09:41:38.967Z,95427.00
2018-07-26T09:44:05.799Z,95430.47
2018-07-26T09:46:32.563Z,95422.25
2018-07-26T09:48:59.327Z,95419.05
2018-07-26T09:51:26.093Z,95418.17
2018-07-26T09:53:52.828Z,95414.27
2018-07-26T09:56:19.597Z,95431.98
2018-07-26T09:58:46.429Z,95424.40
2018-07-26T10:01:19.075Z,95426.01
2018-07-26T10:03:45.852Z,95426.45
2018-07-26T10:06:12.668Z,95418.52
2018-07-26T10:08:39.606Z,95415.64
2018-07-26T10:11:06.451Z,95414.14
2018-07-26T10:13:33.203Z,95413.77
2018-07-26T10:16:00.027Z,95416.22
2018-07-26T10:18:26.688Z,95412.05
2018-07-26T10:20:53.460Z,95414.82
2018-07-26T10:23:20.188Z,95415.41
2018-07-26T10:25:47.019Z,95418.14
2018-07-26T10:28:13.766Z,95411.77
2018-07-26T10:30:40.609Z,95414.30
2018-07-26T10:33:07.336Z,95407.33
2018-07-26T10:35:34.131Z,95403.13
2018-07-26T10:38:01.488Z,95416.91
2018-07-26T10:40:28.441Z,95407.27
2018-07-26T10:42:55.200Z,95412.29
2018-07-26T10:45:21.949Z,95405.03
2018-07-26T10:47:48.735Z,95411.47
2018-07-26T10:50:15.671Z,95412.83
2018-07-26T10:52:42.400Z,95405.37
2018-07-26T10:55:09.131Z,95415.20
2018-07-26T10:57:37.096Z,95402.57
2018-07-26T11:00:04.860Z,95402.73
2018-07-26T11:02:31.652Z,95402.16
2018-07-26T11:04:58.390Z,95398.88
2018-07-26T11:07:25.219Z,95402.50
2018-07-26T11:09:51.961Z,95401.41
2018-07-26T11:12:19.607Z,95399.07
2018-07-26T11:14:46.432Z,95407.25
2018-07-26T11:17:13.192Z,95400.82
2018-07-26T11:19:39.977Z,95398.56
2018-07-26T11:22:06.775Z,95396.89
2018-07-26T11:24:33.560Z,95396.06
2018-07-26T11:27:00.352Z,95396.81
2018-07-26T11:29:27.131Z,95392.41
2018-07-26T11:31:53.949Z,95390.25
2018-07-26T11:34:20.704Z,95395.59
2018-07-26T11:36:47.460Z,95389.36
2018-07-26T11:39:14.252Z,95388.95
2018-07-26T11:41:40.978Z,95385.02
2018-07-26T11:44:07.752Z,95383.41
2018-07-26T11:46:34.502Z,95379.47
2018-07-26T11:49:01.995Z,95382.66
2018-07-26T11:51:28.727Z,95385.56
2018-07-26T11:53:55.567Z,95382.14
2018-07-26T11:56:22.337Z,95388.16
2018-07-26T11:58:49.118Z,95390.97
2018-07-26T12:01:15.840Z,95374.78
2018-07-26T12:03:43.043Z,95367.01
2018-07-26T12:06:09.775Z,95368.86
2018-07-26T12:08:36.524Z,95373.95
2018-07-26T12:11:03.575Z,95368.27
2018-07-26T12:13:30.315Z,95366.94
2018-07-26T12:15:57.132Z,95365.80
2018-07-26T12:18:23.926Z,95359.77
2018-07-26T12:20:50.736Z,95365.17
2018-07-26T12:23:17.507Z,95363.54
2018-07-26T12:25:44.296Z,95360.66
2018-07-26T12:28:11.036Z,95362.44
2018-07-26T12:30:37.885Z,95358.39
2018-07-26T12:33:04.644Z,95366.05
2018-07-26T12:35:31.463Z,95358.80
2018-07-26T12:37:58.207Z,95357.13
2018-07-26T12:40:25.022Z,95358.34
2018-07-26T12:42:51.809Z,95345.28
2018-07-26T12:45:18.772Z,95355.54
2018-07-26T12:47:45.583Z,95349.78
2018-07-26T12:50:12.307Z,95337.43
2018-07-26T12:52:39.167Z,95333.81
2018-07-26T12:55:05.915Z,95336.94
2018-07-26T12:57:32.767Z,95336.70
2018-07-26T12:59:59.687Z,95340.31
2018-07-26T13:02:26.541Z,95336.06
2018-07-26T13:04:53.269Z,95335.56
2018-07-26T13:07:20.132Z,95334.66
2018-07-26T13:09:46.948Z,95331.36
2018-07-26T13:12:13.959Z,95326.30
2018-07-26T13:14:40.988Z,95322.72
2018-07-26T13:17:07.866Z,95326.24
2018-07-26T13:19:34.686Z,95324.62
2018-07-26T13:22:01.548Z,95321.48
2018-07-26T13:24:28.583Z,95321.80
2018-07-26T13:26:55.507Z,95326.58
2018-07-26T13:29:22.466Z,95317.02
2018-07-26T13:31:49.342Z,95321.75
2018-07-26T13:34:16.158Z,95316.03
2018-07-26T13:36:43.027Z,95319.59
2018-07-26T13:39:11.951Z,95306.22
2018-07-26T13:41:38.986Z,95310.48
2018-07-26T13:44:05.919Z,95311.36
2018-07-26T13:46:32.828Z,95309.28
2018-07-26T13:48:59.783Z,95305.09
2018-07-26T13:51:26.519Z,95307.60
2018-07-26T13:53:53.459Z,95308.32
2018-07-26T13:56:20.344Z,95306.99
2018-07-26T13:58:47.104Z,95301.07
2018-07-26T14:01:13.888Z,95301.73
2018-07-26T14:03:40.732Z,95306.93
2018-07-26T14:06:07.516Z,95300.36
2018-07-26T14:08:34.337Z,95296.39
2018-07-26T14:11:01.863Z,95298.03
2018-07-26T14:13:28.668Z,95295.66
2018-07-26T14:15:55.531Z,95299.98
2018-07-26T14:18:22.188Z,95298.94
2018-07-26T14:20:49.031Z,95294.31
2018-07-26T14:23:21.466Z,95290.97
2018-07-26T14:25:48.257Z,95290.84
2018-07-26T14:28:15.132Z,95292.59
2018-07-26T14:30:42.296Z,95291.70
2018-07-26T14:33:09.044Z,95287.26
2018-07-26T14:35:35.930Z,95292.63
2018-07-26T14:38:02.828Z,95297.05
2018-07-26T14:40:29.631Z,95293.68
2018-07-26T14:42:56.404Z,95290.86
2018-07-26T14:45:23.181Z,95284.55
2018-07-26T14:47:51.744Z,95285.04
2018-07-26T14:50:18.497Z,95289.47
2018-07-26T14:52:45.731Z,95290.86
2018-07-26T14:55:12.480Z,95288.75
2018-07-26T14:57:39.233Z,95281.27
2018-07-26T15:00:06.015Z,95281.94
2018-07-26T15:02:32.796Z,95284.46
2018-07-26T15:04:59.559Z,95282.08
2018-07-26T15:07:26.360Z,95276.23
2018-07-26T15:09:53.707Z,95282.16
2018-07-26T15:12:20.512Z,95284.96
2018-07-26T15:14:47.324Z,95285.75
2018-07-26T15:17:14.089Z,95289.36
2018-07-26T15:19:41.039Z,95291.25
2018-07-26T15:22:07.900Z,95291.05
2018-07-26T15:24:35.457Z,95293.33
2018-07-26T15:27:02.233Z,95286.13
2018-07-26T15:29:29.044Z,95286.47
2018-07-26T15:31:55.831Z,95291.04
2018-07-26T15:34:22.545Z,95286.30
2018-07-26T15:36:49.312Z,95285.50
2018-07-26T15:39:16.056Z,95281.18
2018-07-26T15:41:44.049Z,95286.33
2018-07-26T15:44:11.379Z,95283.62
2018-07-26T15:46:38.347Z,95283.30
2018-07-26T15:49:05.473Z,95286.56
2018-07-26T15:51:32.307Z,95284.39
2018-07-26T15:53:59.010Z,95275.48
2018-07-26T15:56:25.767Z,95282.98
2018-07-26T15:58:52.547Z,95281.53
2018-07-26T16:01:19.307Z,95277.83
2018-07-26T16:03:46.085Z,95273.38
2018-07-26T16:06:12.814Z,95278.66
2018-07-26T16:08:39.571Z,95274.84
2018-07-26T16:11:06.384Z,95275.13
2018-07-26T16:13:33.196Z,95272.18
2018-07-26T16:15:59.991Z,95274.92
2018-07-26T16:18:26.763Z,95279.12
2018-07-26T16:20:53.732Z,95277.29
2018-07-26T16:23:20.533Z,95278.52
2018-07-26T16:25:47.280Z,95277.60
2018-07-26T16:28:14.068Z,95276.88
2018-07-26T16:30:42.186Z,95278.09
2018-07-26T16:33:08.849Z,95277.16
2018-07-26T16:35:35.651Z,95275.63
2018-07-26T16:38:02.686Z,95269.95
2018-07-26T16:40:29.509Z,95271.28
2018-07-26T16:42:56.268Z,95277.59
2018-07-26T16:45:23.101Z,95276.69
2018-07-26T16:47:49.784Z,95288.20
2018-07-26T16:50:16.606Z,95277.28
2018-07-26T16:52:43.351Z,95281.23
2018-07-26T16:55:10.111Z,95281.56
2018-07-26T16:57:37.047Z,95276.06
2018-07-26T17:00:05.679Z,95278.25
2018-07-26T17:02:32.436Z,95279.89
2018-07-26T17:04:59.227Z,95277.50
2018-07-26T17:07:25.998Z,95277.59
2018-07-26T17:09:52.768Z,95277.05
2018-07-26T17:12:19.570Z,95266.55
2018-07-26T17:14:46.529Z,95270.38
2018-07-26T17:17:13.255Z,95267.84
2018-07-26T17:19:40.038Z,95273.51
2018-07-26T17:22:07.153Z,95271.22
2018-07-26T17:24:33.908Z,95268.59
2018-07-26T17:27:00.818Z,95273.04
2018-07-26T17:29:27.749Z,95279.43
2018-07-26T17:31:54.609Z,95272.88
2018-07-26T17:34:21.381Z,95272.42
2018-07-26T17:36:48.219Z,95274.70
2018-07-26T17:39:14.956Z,95279.15
2018-07-26T17:41:41.808Z,95275.41
2018-07-26T17:44:08.435Z,95279.39
2018-07-26T17:46:35.277Z,95274.20
2018-07-26T17:49:02.618Z,95278.13
2018-07-26T17:51:29.772Z,95278.95
2018-07-26T17:53:56.592Z,95277.25
2018-07-26T17:56:23.539Z,95273.25
2018-07-26T17:58:50.589Z,95275.91
2018-07-26T18:01:17.387Z,95279.33
2018-07-26T18:03:44.212Z,95279.71
2018-07-26T18:06:11.014Z,95288.16
2018-07-26T18:08:37.816Z,95293.89
2018-07-26T18:11:04.644Z,95290.92
2018-07-26T18:13:31.528Z,95293.77
2018-07-26T18:15:58.285Z,95297.27
2018-07-26T18:18:25.074Z,95292.63
2018-07-26T18:20:51.814Z,95299.26
2018-07-26T18:23:18.639Z,95306.27
2018-07-26T18:25:45.376Z,95300.41
2018-07-26T18:28:12.136Z,95307.16
2018-07-26T18:30:38.903Z,95310.14
2018-07-26T18:33:05.687Z,95300.48
2018-07-26T18:35:32.445Z,95298.72
2018-07-26T18:37:59.212Z,95306.82
2018-07-26T18:40:26.208Z,95301.09
2018-07-26T18:42:52.965Z,95308.59
2018-07-26T18:45:21.166Z,95309.74
2018-07-26T18:47:47.946Z,95311.21
2018-07-26T18:50:14.727Z,95313.11
2018-07-26T18:52:41.552Z,95317.70
2018-07-26T18:55:09.480Z,95321.51
2018-07-26T18:57:36.220Z,95321.55
2018-07-26T19:00:04.376Z,95318.06
2018-07-26T19:02:31.112Z,95320.73
2018-07-26T19:04:57.876Z,95323.94
2018-07-26T19:07:24.647Z,95329.14
2018-07-26T19:09:51.964Z,95332.83
2018-07-26T19:12:18.711Z,95332.82
2018-07-26T19:14:45.548Z,95338.43
2018-07-26T19:17:12.280Z,95338.10
2018-07-26T19:19:39.064Z,95336.70
2018-07-26T19:22:05.910Z,95342.62
2018-07-26T19:24:32.667Z,95345.28
2018-07-26T19:26:59.424Z,95351.27
2018-07-26T19:29:26.409Z,95347.36
2018-07-26T19:31:53.196Z,95343.53
2018-07-26T19:34:19.955Z,95350.63
2018-07-26T19:36:46.712Z,95350.72
2018-07-26T19:39:13.468Z,95346.22
2018-07-26T19:41:40.988Z,95348.61
2018-07-26T19:44:07.730Z,95353.44
2018-07-26T19:46:36.518Z,95350.27
2018-07-26T19:49:03.468Z,95350.66
2018-07-26T19:51:30.263Z,95354.50
2018-07-26T19:53:57.016Z,95351.98
2018-07-26T19:56:23.884Z,95350.96
2018-07-26T19:58:50.632Z,95360.20
2018-07-26T20:01:17.549Z,95362.42
2018-07-26T20:03:45.178Z,95356.78
2018-07-26T20:06:11.349Z,95350.28
2018-07-26T20:08:38.364Z,95346.52
2018-07-26T20:11:05.350Z,95348.52
2018-07-26T20:13:32.051Z,95345.31
2018-07-26T20:15:58.856Z,95343.91
2018-07-26T20:18:25.634Z,95342.95
2018-07-26T20:20:52.635Z,95341.99
2018-07-26T20:23:19.404Z,95346.70
2018-07-26T20:25:46.668Z,95346.02
2018-07-26T20:28:13.965Z,95347.38
2018-07-26T20:30:43.588Z,95344.95
2018-07-26T20:33:10.387Z,95345.41
2018-07-26T20:35:37.765Z,95345.33
2018-07-26T20:38:05.156Z,95346.41
2018-07-26T20:40:32.028Z,95342.05
2018-07-26T20:42:59.076Z,95342.98
2018-07-26T20:45:25.924Z,95336.55
2018-07-26T20:47:53.359Z,95340.91
2018-07-26T20:50:23.964Z,95335.59
2018-07-26T20:52:51.885Z,95342.78
2018-07-26T20:55:19.006Z,95343.80
2018-07-26T20:57:45.853Z,95340.09
2018-07-26T21:00:15.371Z,95342.75
2018-07-26T21:02:42.938Z,95340.60
2018-07-26T21:05:09.923Z,95340.69
2018-07-26T21:07:36.859Z,95341.93
2018-07-26T21:10:04.643Z,95335.02
2018-07-26T21:12:31.381Z,95342.77
2018-07-26T21:14:58.137Z,95341.91
2018-07-26T21:17:24.864Z,95343.75
2018-07-26T21:19:51.623Z,95347.88
2018-07-26T21:22:18.388Z,95347.28
2018-07-26T21:24:45.151Z,95345.95
2018-07-26T21:27:11.884Z,95341.84
2018-07-26T21:29:38.646Z,95340.83
2018-07-26T21:32:05.481Z,95338.16
2018-07-26T21:34:32.259Z,95335.64
2018-07-26T21:36:59.375Z,95345.88
2018-07-26T21:39:26.144Z,95337.75
2018-07-26T21:41:52.890Z,95340.59
2018-07-26T21:44:19.656Z,95335.09
2018-07-26T21:46:46.396Z,95335.00
2018-07-26T21:49:13.212Z,95341.23
2018-07-26T21:51:39.923Z,95343.20
2018-07-26T21:54:06.673Z,95338.34
2018-07-26T21:56:33.448Z,95346.50
2018-07-26T21:59:00.224Z,95345.41
2018-07-26T22:01:26.997Z,95353.19
2018-07-26T22:03:53.773Z,95356.38
2018-07-26T22:06:20.555Z,95360.31
2018-07-26T22:08:47.347Z,95360.22
2018-07-26T22:11:14.051Z,95369.61
2018-07-26T22:13:40.811Z,95356.11
2018-07-26T22:16:07.699Z,95368.44
2018-07-26T22:18:34.507Z,95369.14
2018-07-26T22:21:02.141Z,95367.02
2018-07-26T22:23:28.904Z,95368.34
2018-07-26T22:25:55.677Z,95369.11
2018-07-26T22:28:22.410Z,95360.47
2018-07-26T22:30:49.247Z,95370.70
2018-07-26T22:33:15.976Z,95371.22
2018-07-26T22:35:43.188Z,95367.95
2018-07-26T22:38:10.471Z,95367.05
2018-07-26T22:40:37.208Z,95362.33
2018-07-26T22:43:04.299Z,95363.39
2018-07-26T22:45:31.039Z,95360.25
2018-07-26T22:47:57.876Z,95361.00
2018-07-26T22:50:24.608Z,95357.13
2018-07-26T22:52:51.464Z,95356.34
2018-07-26T22:55:18.207Z,95347.38
2018-07-26T22:57:44.980Z,95346.44
2018-07-26T23:00:11.766Z,95344.83
2018-07-26T23:02:38.513Z,95345.22
2018-07-26T23:05:05.311Z,95346.38
2018-07-26T23:07:32.123Z,95347.17
2018-07-26T23:09:58.880Z,95345.45
2018-07-26T23:12:25.820Z,95336.46
2018-07-26T23:14:52.565Z,95337.09
2018-07-26T23:17:19.420Z,95332.41
2018-07-26T23:19:46.214Z,95333.30
2018-07-26T23:22:12.967Z,95333.41
2018-07-26T23:24:39.743Z,95338.40
2018-07-26T23:27:06.487Z,95338.00
2018-07-26T23:29:33.271Z,95342.70
2018-07-26T23:32:00.045Z,95339.12
2018-07-26T23:34:26.817Z,95331.09
2018-07-26T23:36:53.551Z,95331.88
2018-07-26T23:39:20.307Z,95332.09
2018-07-26T23:41:47.047Z,95332.91
2018-07-26T23:44:13.816Z,95328.00
2018-07-26T23:46:40.547Z,95325.97
2018-07-26T23:49:07.311Z,95318.83
2018-07-26T23:51:34.043Z,95317.11
2018-07-26T23:54:01.628Z,95319.55
2018-07-26T23:56:28.344Z,95319.84
2018-07-26T23:58:55.736Z,95314.46
